createdAt,value
2018-05-31T00:02:06.983Z,20.40
2018-05-31T00:04:35.912Z,20.20
2018-05-31T00:07:04.789Z,20.10
2018-05-31T00:09:33.660Z,20.00
2018-05-31T00:12:03.457Z,20.00
2018-05-31T00:14:32.373Z,19.90
2018-05-31T00:17:01.280Z,19.80
2018-05-31T00:19:30.147Z,19.70
2018-05-31T00:21:59.801Z,19.60
2018-05-31T00:24:28.696Z,19.70
2018-05-31T00:26:57.881Z,19.70
2018-05-31T00:29:26.804Z,19.80
2018-05-31T00:31:55.729Z,19.70
2018-05-31T00:34:28.067Z,19.60
2018-05-31T00:36:56.969Z,19.60
2018-05-31T00:39:26.601Z,19.60
2018-05-31T00:41:55.863Z,19.60
2018-05-31T00:44:24.756Z,19.60
2018-05-31T00:46:53.672Z,19.50
2018-05-31T00:49:23.356Z,19.60
2018-05-31T00:51:52.332Z,19.60
2018-05-31T00:54:21.240Z,19.60
2018-05-31T00:56:50.304Z,19.60
2018-05-31T00:59:19.196Z,19.50
2018-05-31T01:01:48.146Z,19.50
2018-05-31T01:04:17.169Z,19.50
2018-05-31T01:06:46.307Z,19.30
2018-05-31T01:09:15.367Z,19.40
2018-05-31T01:11:44.320Z,19.40
2018-05-31T01:14:13.975Z,19.30
2018-05-31T01:16:42.854Z,19.30
2018-05-31T01:19:11.837Z,19.50
2018-05-31T01:21:40.735Z,19.40
2018-05-31T01:24:09.603Z,19.40
2018-05-31T01:26:38.624Z,19.60
2018-05-31T01:29:07.518Z,19.50
2018-05-31T01:31:36.445Z,19.60
2018-05-31T01:34:05.368Z,19.60
2018-05-31T01:36:34.250Z,19.60
2018-05-31T01:39:04.035Z,19.80
2018-05-31T01:41:33.140Z,19.80
2018-05-31T01:44:02.818Z,19.60
2018-05-31T01:46:32.356Z,19.60
2018-05-31T01:49:01.394Z,19.50
2018-05-31T01:51:30.343Z,19.50
2018-05-31T01:53:59.988Z,19.40
2018-05-31T01:56:28.892Z,19.40
2018-05-31T01:58:57.853Z,19.40
2018-05-31T02:01:26.844Z,19.40
2018-05-31T02:03:55.755Z,19.40
2018-05-31T02:06:24.850Z,19.30
2018-05-31T02:08:53.735Z,19.40
2018-05-31T02:11:22.670Z,19.50
2018-05-31T02:13:51.567Z,19.50
2018-05-31T02:16:20.606Z,19.50
2018-05-31T02:18:49.504Z,19.60
2018-05-31T02:21:18.408Z,19.50
2018-05-31T02:23:47.303Z,19.60
2018-05-31T02:26:16.483Z,19.50
2018-05-31T02:28:45.643Z,19.50
2018-05-31T02:31:14.619Z,19.50
2018-05-31T02:33:44.481Z,19.40
2018-05-31T02:36:13.456Z,19.40
2018-05-31T02:38:42.761Z,19.60
2018-05-31T02:41:11.640Z,19.60
2018-05-31T02:43:40.530Z,19.60
2018-05-31T02:46:10.204Z,19.40
2018-05-31T02:48:39.116Z,19.40
2018-05-31T02:51:08.345Z,19.40
2018-05-31T02:53:37.342Z,19.30
2018-05-31T02:56:06.407Z,19.20
2018-05-31T02:58:36.075Z,19.10
2018-05-31T03:01:05.272Z,19.10
2018-05-31T03:03:34.225Z,19.20
2018-05-31T03:06:03.171Z,19.30
2018-05-31T03:08:32.059Z,19.30
2018-05-31T03:11:00.975Z,19.20
2018-05-31T03:13:29.868Z,19.20
2018-05-31T03:15:59.521Z,19.30
2018-05-31T03:18:28.434Z,19.30
2018-05-31T03:20:57.291Z,19.30
2018-05-31T03:23:26.331Z,19.30
2018-05-31T03:25:55.296Z,19.50
2018-05-31T03:28:24.277Z,19.50
2018-05-31T03:30:53.166Z,19.50
2018-05-31T03:33:22.291Z,19.50
2018-05-31T03:35:51.157Z,19.50
2018-05-31T03:38:20.057Z,19.60
2018-05-31T03:40:48.931Z,19.60
2018-05-31T03:43:17.871Z,19.60
2018-05-31T03:45:46.823Z,19.80
2018-05-31T03:48:15.749Z,20.00
2018-05-31T03:50:44.732Z,20.20
2018-05-31T03:53:13.812Z,20.40
2018-05-31T03:55:42.753Z,20.50
2018-05-31T03:58:12.577Z,20.70
2018-05-31T04:00:42.284Z,20.80
2018-05-31T04:03:11.407Z,20.80
2018-05-31T04:05:40.276Z,20.80
2018-05-31T04:08:10.000Z,20.90
2018-05-31T04:10:39.107Z,20.90
2018-05-31T04:13:07.975Z,21.10
2018-05-31T04:15:37.907Z,21.50
2018-05-31T04:18:06.809Z,21.80
2018-05-31T04:20:35.982Z,22.00
2018-05-31T04:23:04.897Z,22.10
2018-05-31T04:25:33.876Z,22.30
2018-05-31T04:28:02.855Z,22.50
2018-05-31T04:30:31.769Z,22.80
2018-05-31T04:33:00.637Z,23.00
2018-05-31T04:35:29.757Z,23.00
2018-05-31T04:37:58.653Z,23.10
2018-05-31T04:40:27.568Z,22.90
2018-05-31T04:42:56.556Z,22.80
2018-05-31T04:45:25.483Z,22.60
2018-05-31T04:47:54.540Z,22.80
2018-05-31T04:50:23.412Z,22.90
2018-05-31T04:52:52.696Z,23.10
2018-05-31T04:55:21.752Z,23.20
2018-05-31T04:57:51.420Z,23.50
2018-05-31T05:00:20.773Z,23.50
2018-05-31T05:02:49.724Z,23.70
2018-05-31T05:05:18.635Z,24.00
2018-05-31T05:07:47.660Z,24.10
2018-05-31T05:10:16.917Z,24.10
2018-05-31T05:12:45.806Z,24.20
2018-05-31T05:15:14.820Z,24.00
2018-05-31T05:17:44.476Z,24.40
2018-05-31T05:20:14.261Z,24.30
2018-05-31T05:22:43.327Z,24.20
2018-05-31T05:25:12.219Z,24.40
2018-05-31T05:27:41.113Z,24.30
2018-05-31T05:30:10.866Z,24.00
2018-05-31T05:32:39.966Z,24.00
2018-05-31T05:35:09.257Z,23.90
2018-05-31T05:37:38.146Z,24.10
2018-05-31T05:40:07.073Z,23.90
2018-05-31T05:42:36.871Z,24.10
2018-05-31T05:45:05.831Z,24.70
2018-05-31T05:47:34.712Z,24.90
2018-05-31T05:50:03.969Z,24.90
2018-05-31T05:52:32.932Z,24.80
2018-05-31T05:55:01.982Z,24.90
2018-05-31T05:57:31.073Z,24.90
2018-05-31T06:00:00.736Z,25.50
2018-05-31T06:02:29.595Z,25.50
2018-05-31T06:04:58.500Z,26.00
2018-05-31T06:07:27.367Z,26.00
2018-05-31T06:09:57.037Z,26.60
2018-05-31T06:12:26.101Z,26.60
2018-05-31T06:14:55.004Z,26.50
2018-05-31T06:17:23.891Z,26.40
2018-05-31T06:19:52.814Z,26.40
2018-05-31T06:22:21.800Z,26.40
2018-05-31T06:24:50.704Z,26.70
2018-05-31T06:27:20.050Z,26.70
2018-05-31T06:29:49.092Z,26.90
2018-05-31T06:32:18.054Z,27.00
2018-05-31T06:34:47.084Z,27.10
2018-05-31T06:37:16.025Z,27.40
2018-05-31T06:39:45.667Z,27.50
2018-05-31T06:42:14.681Z,27.50
2018-05-31T06:44:44.345Z,27.70
2018-05-31T06:47:13.269Z,27.90
2018-05-31T06:49:42.396Z,27.80
2018-05-31T06:52:12.062Z,28.00
2018-05-31T06:54:40.953Z,28.00
2018-05-31T06:57:10.116Z,28.30
2018-05-31T06:59:39.032Z,29.00
2018-05-31T07:02:07.932Z,28.90
2018-05-31T07:04:36.805Z,28.90
2018-05-31T07:07:05.691Z,28.30
2018-05-31T07:09:34.571Z,28.90
2018-05-31T07:12:03.656Z,29.20
2018-05-31T07:14:32.551Z,29.50
2018-05-31T07:17:01.509Z,29.50
2018-05-31T07:19:31.169Z,29.20
2018-05-31T07:22:00.216Z,29.20
2018-05-31T07:24:29.115Z,29.30
2018-05-31T07:26:58.944Z,29.70
2018-05-31T07:29:28.664Z,30.00
2018-05-31T07:31:57.697Z,30.00
2018-05-31T07:34:26.789Z,30.20
2018-05-31T07:36:55.855Z,30.50
2018-05-31T07:39:24.723Z,30.90
2018-05-31T07:41:53.621Z,31.50
2018-05-31T07:44:22.631Z,31.10
2018-05-31T07:46:51.552Z,31.50
2018-05-31T07:49:20.436Z,31.80
2018-05-31T07:51:49.509Z,31.80
2018-05-31T07:54:18.540Z,31.90
2018-05-31T07:56:47.553Z,31.40
2018-05-31T07:59:16.653Z,31.90
2018-05-31T08:01:46.340Z,31.60
2018-05-31T08:04:15.247Z,31.60
2018-05-31T08:06:44.949Z,30.70
2018-05-31T08:09:13.848Z,30.70
2018-05-31T08:11:43.504Z,31.70
2018-05-31T08:14:12.412Z,31.60
2018-05-31T08:16:41.308Z,32.10
2018-05-31T08:19:10.217Z,32.10
2018-05-31T08:21:39.101Z,32.60
2018-05-31T08:24:09.572Z,32.40
2018-05-31T08:26:38.436Z,32.40
2018-05-31T08:29:08.312Z,32.40
2018-05-31T08:31:37.300Z,32.30
2018-05-31T08:34:06.927Z,32.30
2018-05-31T08:36:35.984Z,32.30
2018-05-31T08:39:05.764Z,32.70
2018-05-31T08:41:37.220Z,32.50
2018-05-31T08:44:07.761Z,32.80
2018-05-31T08:46:37.077Z,32.70
2018-05-31T08:49:06.817Z,32.70
2018-05-31T08:51:36.225Z,32.90
2018-05-31T08:54:05.244Z,32.70
2018-05-31T08:56:34.892Z,33.50
2018-05-31T08:59:03.776Z,33.50
2018-05-31T09:01:32.833Z,33.40
2018-05-31T09:04:02.744Z,32.50
2018-05-31T09:06:32.403Z,32.50
2018-05-31T09:09:01.294Z,32.50
2018-05-31T09:11:30.167Z,32.30
2018-05-31T09:13:59.085Z,32.60
2018-05-31T09:16:27.965Z,32.60
2018-05-31T09:18:57.047Z,32.20
2018-05-31T09:21:25.940Z,32.30
2018-05-31T09:23:55.051Z,33.00
2018-05-31T09:26:24.392Z,32.90
2018-05-31T09:28:53.550Z,33.00
2018-05-31T09:31:22.423Z,33.70
2018-05-31T09:33:51.341Z,33.20
2018-05-31T09:36:20.413Z,33.10
2018-05-31T09:38:49.304Z,32.60
2018-05-31T09:41:18.291Z,32.00
2018-05-31T09:43:47.288Z,32.10
2018-05-31T09:46:16.158Z,32.60
2018-05-31T09:48:45.031Z,32.10
2018-05-31T09:51:14.776Z,32.40
2018-05-31T09:53:43.664Z,32.30
2018-05-31T09:56:12.576Z,31.90
2018-05-31T09:58:41.476Z,32.00
2018-05-31T10:01:10.376Z,32.20
2018-05-31T10:03:39.256Z,33.10
2018-05-31T10:06:08.330Z,33.50
2018-05-31T10:08:37.358Z,32.70
2018-05-31T10:11:06.573Z,32.80
2018-05-31T10:13:35.442Z,32.60
2018-05-31T10:16:04.348Z,32.30
2018-05-31T10:18:33.231Z,32.00
2018-05-31T10:21:02.804Z,31.90
2018-05-31T10:23:31.774Z,32.50
2018-05-31T10:26:00.720Z,32.60
2018-05-31T10:28:29.882Z,32.20
2018-05-31T10:30:58.809Z,32.00
2018-05-31T10:33:27.875Z,32.20
2018-05-31T10:35:56.944Z,32.10
2018-05-31T10:38:25.830Z,31.70
2018-05-31T10:40:54.683Z,31.30
2018-05-31T10:43:23.571Z,31.70
2018-05-31T10:45:52.449Z,31.80
2018-05-31T10:48:21.353Z,31.50
2018-05-31T10:50:50.283Z,31.80
2018-05-31T10:53:19.158Z,31.00
2018-05-31T10:55:49.009Z,31.10
2018-05-31T10:58:18.043Z,31.10
2018-05-31T11:00:47.012Z,31.40
2018-05-31T11:03:16.068Z,31.00
2018-05-31T11:05:45.076Z,30.40
2018-05-31T11:08:14.840Z,30.90
2018-05-31T11:10:45.359Z,31.10
2018-05-31T11:13:14.471Z,31.10
2018-05-31T11:15:44.149Z,30.70
2018-05-31T11:18:13.243Z,30.70
2018-05-31T11:20:42.156Z,30.50
2018-05-31T11:23:11.205Z,30.40
2018-05-31T11:25:40.116Z,30.40
2018-05-31T11:28:09.251Z,30.40
2018-05-31T11:30:38.905Z,30.60
2018-05-31T11:33:08.024Z,30.60
2018-05-31T11:35:37.013Z,30.40
2018-05-31T11:38:06.176Z,30.20
2018-05-31T11:40:35.065Z,29.70
2018-05-31T11:43:03.957Z,29.70
2018-05-31T11:45:32.888Z,29.80
2018-05-31T11:48:01.816Z,29.80
2018-05-31T11:50:31.452Z,29.70
2018-05-31T11:53:00.347Z,29.60
2018-05-31T11:55:29.275Z,29.80
2018-05-31T11:57:58.255Z,29.90
2018-05-31T12:00:27.352Z,30.00
2018-05-31T12:02:56.249Z,29.90
2018-05-31T12:05:25.177Z,29.90
2018-05-31T12:07:54.869Z,30.10
2018-05-31T12:10:23.796Z,30.10
2018-05-31T12:12:52.667Z,29.80
2018-05-31T12:15:21.556Z,29.60
2018-05-31T12:17:50.461Z,29.50
2018-05-31T12:20:19.489Z,29.50
2018-05-31T12:22:48.435Z,29.50
2018-05-31T12:25:17.446Z,29.60
2018-05-31T12:27:46.336Z,29.40
2018-05-31T12:30:15.222Z,29.60
2018-05-31T12:32:44.443Z,29.50
2018-05-31T12:35:13.562Z,29.70
2018-05-31T12:37:42.580Z,29.60
2018-05-31T12:40:11.592Z,29.70
2018-05-31T12:42:40.493Z,29.60
2018-05-31T12:45:09.380Z,29.60
2018-05-31T12:47:38.300Z,29.60
2018-05-31T12:50:07.179Z,29.60
2018-05-31T12:52:36.068Z,29.60
2018-05-31T12:55:05.088Z,29.60
2018-05-31T12:57:33.963Z,29.80
2018-05-31T13:00:03.089Z,29.60
2018-05-31T13:02:31.960Z,29.50
2018-05-31T13:05:01.028Z,29.60
2018-05-31T13:07:29.925Z,29.70
2018-05-31T13:09:58.849Z,29.70
2018-05-31T13:12:27.712Z,29.60
2018-05-31T13:14:56.577Z,29.50
2018-05-31T13:17:25.476Z,29.50
2018-05-31T13:19:54.383Z,29.50
2018-05-31T13:22:23.279Z,29.80
2018-05-31T13:24:52.241Z,29.70
2018-05-31T13:27:21.919Z,29.50
2018-05-31T13:29:50.857Z,29.40
2018-05-31T13:32:19.776Z,29.60
2018-05-31T13:34:48.683Z,29.50
2018-05-31T13:37:17.658Z,29.60
2018-05-31T13:39:46.595Z,29.60
2018-05-31T13:42:15.468Z,29.50
2018-05-31T13:44:44.363Z,29.40
2018-05-31T13:47:14.084Z,29.60
2018-05-31T13:49:43.851Z,29.80
2018-05-31T13:52:13.249Z,29.70
2018-05-31T13:54:42.285Z,29.70
2018-05-31T13:57:11.922Z,29.70
2018-05-31T13:59:40.823Z,29.60
2018-05-31T14:02:09.739Z,29.50
2018-05-31T14:04:39.371Z,29.30
2018-05-31T14:07:09.280Z,29.40
2018-05-31T14:09:38.160Z,29.50
2018-05-31T14:12:07.036Z,29.60
2018-05-31T14:14:35.970Z,29.60
2018-05-31T14:17:06.232Z,29.30
2018-05-31T14:19:35.345Z,29.30
2018-05-31T14:22:04.610Z,29.20
2018-05-31T14:24:33.613Z,29.20
2018-05-31T14:27:02.742Z,29.30
2018-05-31T14:29:31.652Z,29.20
2018-05-31T14:32:00.540Z,29.20
2018-05-31T14:34:29.600Z,29.20
2018-05-31T14:36:58.647Z,29.30
2018-05-31T14:39:28.333Z,29.30
2018-05-31T14:41:57.528Z,29.30
2018-05-31T14:44:26.671Z,29.30
2018-05-31T14:46:55.640Z,29.30
2018-05-31T14:49:24.829Z,29.40
2018-05-31T14:51:53.773Z,29.40
2018-05-31T14:54:22.842Z,29.30
2018-05-31T14:56:51.738Z,29.20
2018-05-31T14:59:20.816Z,29.20
2018-05-31T15:01:50.540Z,29.20
2018-05-31T15:04:19.408Z,29.20
2018-05-31T15:06:49.111Z,29.20
2018-05-31T15:09:18.914Z,29.20
2018-05-31T15:11:47.973Z,29.20
2018-05-31T15:14:16.884Z,29.20
2018-05-31T15:16:46.123Z,29.20
2018-05-31T15:19:14.979Z,29.00
2018-05-31T15:21:44.084Z,29.00
2018-05-31T15:24:13.736Z,28.90
2018-05-31T15:26:42.847Z,28.90
2018-05-31T15:29:12.099Z,28.90
2018-05-31T15:31:40.996Z,28.80
2018-05-31T15:34:11.099Z,28.80
2018-05-31T15:36:40.141Z,28.80
2018-05-31T15:39:09.033Z,28.90
2018-05-31T15:41:38.044Z,28.90
2018-05-31T15:44:06.914Z,29.00
2018-05-31T15:46:35.805Z,29.00
2018-05-31T15:49:04.764Z,28.90
2018-05-31T15:51:34.440Z,28.90
2018-05-31T15:54:03.451Z,28.90
2018-05-31T15:56:33.088Z,29.00
2018-05-31T15:59:02.086Z,28.90
2018-05-31T16:01:31.168Z,28.80
2018-05-31T16:04:00.875Z,28.90
2018-05-31T16:06:30.528Z,28.90
2018-05-31T16:08:59.632Z,28.90
2018-05-31T16:11:28.769Z,28.90
2018-05-31T16:13:57.846Z,28.90
2018-05-31T16:16:26.736Z,28.90
2018-05-31T16:18:56.421Z,28.90
2018-05-31T16:21:25.329Z,28.80
2018-05-31T16:23:54.333Z,28.80
2018-05-31T16:26:23.242Z,28.80
2018-05-31T16:28:52.902Z,28.70
2018-05-31T16:31:22.093Z,28.70
2018-05-31T16:33:51.024Z,28.70
2018-05-31T16:36:19.931Z,28.70
2018-05-31T16:38:49.798Z,28.70
2018-05-31T16:41:18.748Z,28.70
2018-05-31T16:43:48.396Z,28.60
2018-05-31T16:46:17.584Z,28.60
2018-05-31T16:48:46.793Z,28.60
2018-05-31T16:51:15.895Z,28.70
2018-05-31T16:53:44.926Z,28.60
2018-05-31T16:56:13.853Z,28.50
2018-05-31T16:58:42.744Z,28.40
2018-05-31T17:01:11.640Z,28.40
2018-05-31T17:03:40.765Z,28.30
2018-05-31T17:06:09.673Z,28.30
2018-05-31T17:08:38.602Z,28.30
2018-05-31T17:11:07.550Z,28.20
2018-05-31T17:13:36.499Z,28.20
2018-05-31T17:16:05.540Z,28.20
2018-05-31T17:18:34.459Z,28.20
2018-05-31T17:21:03.579Z,28.20
2018-05-31T17:23:32.503Z,28.20
2018-05-31T17:26:01.420Z,28.20
2018-05-31T17:28:31.326Z,28.20
2018-05-31T17:31:00.733Z,28.10
2018-05-31T17:33:29.757Z,28.10
2018-05-31T17:35:58.909Z,28.10
2018-05-31T17:38:27.827Z,28.10
2018-05-31T17:40:57.801Z,28.10
2018-05-31T17:43:26.724Z,28.00
2018-05-31T17:45:55.605Z,27.90
2018-05-31T17:48:29.168Z,27.80
2018-05-31T17:50:58.040Z,27.80
2018-05-31T17:53:27.036Z,27.60
2018-05-31T17:55:56.759Z,27.60
2018-05-31T17:58:25.880Z,27.50
2018-05-31T18:00:54.826Z,27.50
2018-05-31T18:03:23.732Z,27.40
2018-05-31T18:05:52.624Z,27.30
2018-05-31T18:08:21.598Z,27.20
2018-05-31T18:10:50.915Z,27.20
2018-05-31T18:13:19.915Z,27.10
2018-05-31T18:15:49.335Z,27.00
2018-05-31T18:18:18.304Z,27.00
2018-05-31T18:20:47.195Z,27.00
2018-05-31T18:23:16.269Z,26.90
2018-05-31T18:25:45.179Z,26.90
2018-05-31T18:28:14.129Z,26.90
2018-05-31T18:30:43.389Z,26.80
2018-05-31T18:33:12.992Z,26.80
2018-05-31T18:35:43.206Z,26.70
2018-05-31T18:38:12.112Z,26.60
2018-05-31T18:40:41.158Z,26.60
2018-05-31T18:43:10.842Z,26.40
2018-05-31T18:45:39.956Z,26.40
2018-05-31T18:48:09.675Z,26.20
2018-05-31T18:50:38.594Z,26.20
2018-05-31T18:53:07.655Z,26.00
2018-05-31T18:55:37.564Z,25.90
2018-05-31T18:58:07.529Z,26.00
2018-05-31T19:00:36.516Z,26.00
2018-05-31T19:03:05.435Z,26.00
2018-05-31T19:05:34.419Z,26.00
2018-05-31T19:08:03.582Z,25.90
2018-05-31T19:10:32.467Z,25.90
2018-05-31T19:13:07.030Z,25.90
2018-05-31T19:15:36.601Z,25.90
2018-05-31T19:18:06.603Z,25.90
2018-05-31T19:20:35.793Z,25.90
2018-05-31T19:23:04.785Z,25.80
2018-05-31T19:25:34.860Z,25.50
2018-05-31T19:28:03.805Z,25.50
2018-05-31T19:30:38.276Z,25.50
2018-05-31T19:33:07.427Z,25.50
2018-05-31T19:35:42.014Z,25.50
2018-05-31T19:38:12.487Z,25.50
2018-05-31T19:40:41.373Z,25.50
2018-05-31T19:43:15.881Z,25.50
2018-05-31T19:45:45.106Z,25.50
2018-05-31T19:48:14.321Z,25.50
2018-05-31T19:50:43.328Z,25.50
2018-05-31T19:53:17.880Z,25.40
2018-05-31T19:55:47.601Z,25.20
2018-05-31T19:58:22.929Z,24.80
2018-05-31T20:00:57.579Z,24.80
2018-05-31T20:03:35.002Z,24.90
2018-05-31T20:06:04.205Z,25.10
2018-05-31T20:08:33.218Z,25.20
2018-05-31T20:11:02.206Z,25.20
2018-05-31T20:13:32.187Z,25.10
2018-05-31T20:16:01.349Z,25.10
2018-05-31T20:18:30.798Z,24.90
2018-05-31T20:20:59.743Z,24.80
2018-05-31T20:23:29.516Z,24.90
2018-05-31T20:25:58.465Z,24.80
2018-05-31T20:28:27.555Z,24.70
2018-05-31T20:30:56.634Z,24.70
2018-05-31T20:33:25.491Z,24.60
2018-05-31T20:35:54.553Z,24.50
2018-05-31T20:38:23.442Z,24.50
2018-05-31T20:40:52.366Z,24.40
2018-05-31T20:43:21.277Z,24.30
2018-05-31T20:45:50.705Z,24.20
2018-05-31T20:48:19.768Z,24.20
2018-05-31T20:50:48.713Z,24.20
2018-05-31T20:53:17.893Z,24.10
2018-05-31T20:55:46.776Z,24.20
2018-05-31T20:58:15.705Z,24.20
2018-05-31T21:00:44.732Z,24.20
2018-05-31T21:03:13.728Z,24.10
2018-05-31T21:05:42.671Z,24.10
2018-05-31T21:08:11.581Z,24.10
2018-05-31T21:10:40.621Z,24.00
2018-05-31T21:13:09.852Z,23.90
2018-05-31T21:15:38.772Z,23.90
2018-05-31T21:18:07.676Z,24.00
2018-05-31T21:20:36.592Z,23.90
2018-05-31T21:23:06.453Z,23.70
2018-05-31T21:25:35.389Z,23.70
2018-05-31T21:28:04.305Z,23.80
2018-05-31T21:30:33.223Z,23.70
2018-05-31T21:33:02.308Z,23.60
2018-05-31T21:35:31.364Z,23.60
2018-05-31T21:38:00.261Z,23.60
2018-05-31T21:40:29.206Z,23.70
2018-05-31T21:42:58.112Z,23.60
2018-05-31T21:45:27.084Z,23.40
2018-05-31T21:47:56.160Z,23.60
2018-05-31T21:50:26.073Z,23.60
2018-05-31T21:52:56.281Z,23.60
2018-05-31T21:55:26.172Z,23.60
2018-05-31T21:57:55.863Z,23.40
2018-05-31T22:00:34.419Z,23.50
2018-05-31T22:03:04.108Z,23.40
2018-05-31T22:05:33.843Z,23.40
2018-05-31T22:08:02.701Z,23.40
2018-05-31T22:10:31.992Z,23.30
2018-05-31T22:13:01.089Z,23.10
2018-05-31T22:15:30.638Z,23.00
2018-05-31T22:17:59.555Z,23.00
2018-05-31T22:20:28.480Z,23.00
2018-05-31T22:22:57.559Z,22.90
2018-05-31T22:25:26.448Z,22.90
2018-05-31T22:27:55.369Z,23.00
2018-05-31T22:30:25.105Z,22.90
2018-05-31T22:32:54.105Z,22.90
2018-05-31T22:35:23.607Z,22.80
2018-05-31T22:37:52.524Z,22.70
2018-05-31T22:40:21.515Z,22.70
2018-05-31T22:42:50.786Z,22.60
2018-05-31T22:45:20.090Z,22.70
2018-05-31T22:47:49.019Z,22.50
2018-05-31T22:50:17.907Z,22.60
2018-05-31T22:52:46.853Z,22.60
2018-05-31T22:55:15.746Z,22.60
2018-05-31T22:57:44.816Z,22.60
2018-05-31T23:00:13.822Z,22.50
2018-05-31T23:02:43.763Z,22.20
2018-05-31T23:05:12.598Z,22.10
2018-05-31T23:07:41.712Z,22.30
2018-05-31T23:10:10.620Z,22.30
2018-05-31T23:12:39.494Z,22.30
2018-05-31T23:15:09.322Z,21.90
2018-05-31T23:17:38.320Z,21.90
2018-05-31T23:20:07.220Z,21.90
2018-05-31T23:22:36.334Z,21.90
2018-05-31T23:25:05.455Z,21.70
2018-05-31T23:27:34.372Z,21.80
2018-05-31T23:30:03.527Z,21.90
2018-05-31T23:32:32.397Z,21.90
2018-05-31T23:35:01.277Z,21.80
2018-05-31T23:37:30.339Z,21.80
2018-05-31T23:39:59.220Z,21.80
2018-05-31T23:42:28.561Z,21.80
2018-05-31T23:44:57.917Z,21.60
2018-05-31T23:47:26.804Z,21.70
2018-05-31T23:49:55.762Z,21.80
2018-05-31T23:52:24.652Z,21.70
2018-05-31T23:54:53.555Z,21.80
2018-05-31T23:57:22.632Z,21.60
2018-05-31T23:59:51.749Z,21.60
